Who's Online

We have 8 guests online

GK Weather

An error occured during parsing XML data. Please try again.

Aviation WX

[source: ADDS]
METAR
KIAD 301452Z 00000KT 10SM FEW090 BKN250 24/14 A3007 RMK AO2 SLP179 T02440139 50001 =
TAF
KIAD 301507Z 3015/0118 14004KT P6SM SCT130 FM301700 17005KT P6SM BKN050 FM010900 VRB03KT 5SM BR BKN050 FM011300 22005KT P6SM BKN060 =
SR / SS: 23:33 / 14:18 UTC (Washington-Dulles 2016-06-30)

JoomlaWatch Agent

Home Links
We are regularly out on the Web. When we find a great site we list it.